createdAt,value
2022-12-28T00:01:47.885Z,-0.40
2022-12-28T00:04:17.993Z,-0.40
2022-12-28T00:06:45.653Z,-0.30
2022-12-28T00:09:13.382Z,-0.40
2022-12-28T00:11:40.651Z,-0.40
2022-12-28T00:14:08.213Z,-0.30
2022-12-28T00:16:37.485Z,-0.30
2022-12-28T00:19:07.668Z,-0.30
2022-12-28T00:21:34.969Z,-0.30
2022-12-28T00:24:02.502Z,-0.30
2022-12-28T00:26:32.173Z,-0.30
2022-12-28T00:29:04.896Z,-0.40
2022-12-28T00:31:33.400Z,-0.40
2022-12-28T00:34:00.859Z,-0.40
2022-12-28T00:37:08.748Z,-0.30
2022-12-28T00:39:15.217Z,-0.30
2022-12-28T00:41:42.398Z,-0.40
2022-12-28T00:44:09.727Z,-0.40
2022-12-28T00:46:37.102Z,-0.40
2022-12-28T00:49:04.372Z,-0.40
2022-12-28T00:51:31.474Z,-0.40
2022-12-28T00:53:58.624Z,-0.40
2022-12-28T00:56:25.932Z,-0.40
2022-12-28T00:58:57.799Z,-0.40
2022-12-28T01:01:26.391Z,-0.30
2022-12-28T01:03:56.089Z,-0.40
2022-12-28T01:06:23.163Z,-0.40
2022-12-28T01:08:50.334Z,-0.40
2022-12-28T01:11:21.672Z,-0.40
2022-12-28T01:13:50.619Z,-0.40
2022-12-28T01:16:29.399Z,-0.40
2022-12-28T01:18:59.422Z,-0.30
2022-12-28T01:21:29.229Z,-0.40
2022-12-28T01:24:01.938Z,-0.40
2022-12-28T01:26:29.412Z,-0.40
2022-12-28T01:28:57.813Z,-0.40
2022-12-28T01:31:25.180Z,-0.40
2022-12-28T01:33:52.629Z,-0.40
2022-12-28T01:36:25.511Z,-0.40
2022-12-28T01:38:55.098Z,-0.40
2022-12-28T01:41:22.763Z,-0.40
2022-12-28T01:43:52.713Z,-0.30
2022-12-28T01:46:45.973Z,-0.40
2022-12-28T01:49:24.525Z,-0.40
2022-12-28T01:52:19.938Z,-0.40
2022-12-28T01:54:51.212Z,-0.40
2022-12-28T01:57:21.872Z,-0.50
2022-12-28T01:59:56.920Z,-0.40
2022-12-28T02:02:24.544Z,-0.40
2022-12-28T02:04:51.768Z,-0.40
2022-12-28T02:07:42.673Z,-0.40
2022-12-28T02:10:41.399Z,-0.40
2022-12-28T02:12:59.561Z,-0.50
2022-12-28T02:15:26.703Z,-0.40
2022-12-28T02:17:53.834Z,-0.50
2022-12-28T02:20:21.295Z,-0.50
2022-12-28T02:23:12.035Z,-0.50
2022-12-28T02:26:00.132Z,-0.50
2022-12-28T02:28:45.630Z,-0.50
2022-12-28T02:31:21.542Z,-0.50
2022-12-28T02:34:11.360Z,-0.50
2022-12-28T02:36:49.581Z,-0.50
2022-12-28T02:39:22.190Z,-0.50
2022-12-28T02:41:51.667Z,-0.50
2022-12-28T02:44:39.109Z,-0.50
2022-12-28T02:47:31.691Z,-0.50
2022-12-28T02:50:06.533Z,-0.50
2022-12-28T02:53:18.717Z,-0.50
2022-12-28T02:56:10.521Z,-0.50
2022-12-28T02:58:47.995Z,-0.50
2022-12-28T03:01:26.899Z,-0.50
2022-12-28T03:04:12.359Z,-0.60
2022-12-28T03:07:13.648Z,-0.60
2022-12-28T03:09:54.840Z,-0.50
2022-12-28T03:12:30.034Z,-0.60
2022-12-28T03:15:08.655Z,-0.60
2022-12-28T03:17:58.210Z,-0.60
2022-12-28T03:20:47.079Z,-1.00
2022-12-28T03:23:36.296Z,-0.60
2022-12-28T03:26:27.008Z,-0.60
2022-12-28T03:29:14.454Z,-0.60
2022-12-28T03:31:42.226Z,-0.60
2022-12-28T03:34:09.665Z,-0.60
2022-12-28T03:36:43.938Z,-0.60
2022-12-28T03:39:30.010Z,-0.70
2022-12-28T03:42:53.080Z,-0.70
2022-12-28T03:45:45.411Z,-0.70
2022-12-28T03:48:16.306Z,-0.70
2022-12-28T03:50:47.302Z,-0.70
2022-12-28T03:53:16.588Z,-0.70
2022-12-28T03:55:43.902Z,-0.70
2022-12-28T03:58:11.071Z,-0.70
2022-12-28T04:00:38.150Z,-0.70
2022-12-28T04:03:05.385Z,-0.70
2022-12-28T04:05:32.873Z,-0.70
2022-12-28T04:07:59.965Z,-0.80
2022-12-28T04:10:27.253Z,-0.80
2022-12-28T04:12:57.350Z,-0.70
2022-12-28T04:15:24.447Z,-0.70
2022-12-28T04:17:51.594Z,-0.70
2022-12-28T04:20:18.795Z,-0.70
2022-12-28T04:22:45.971Z,-0.80
2022-12-28T04:25:13.149Z,-0.80
2022-12-28T04:27:40.198Z,-0.80
2022-12-28T04:30:07.895Z,-0.70
2022-12-28T04:32:35.820Z,-0.70
2022-12-28T04:35:03.454Z,-0.80
2022-12-28T04:37:31.404Z,-0.70
2022-12-28T04:39:58.508Z,-0.80
2022-12-28T04:42:26.323Z,-0.80
2022-12-28T04:44:53.777Z,-0.80
2022-12-28T04:47:21.076Z,-0.80
2022-12-28T04:49:48.359Z,-0.80
2022-12-28T04:52:15.450Z,-0.80
2022-12-28T04:54:42.536Z,-0.70
2022-12-28T04:57:09.640Z,-0.70
2022-12-28T04:59:36.722Z,-0.70
2022-12-28T05:02:04.786Z,-0.70
2022-12-28T05:04:32.331Z,-0.80
2022-12-28T05:06:59.745Z,-0.80
2022-12-28T05:09:26.849Z,-0.80
2022-12-28T05:11:54.149Z,-0.80
2022-12-28T05:14:21.262Z,-0.80
2022-12-28T05:16:51.819Z,-0.70
2022-12-28T05:19:19.139Z,-0.70
2022-12-28T05:21:46.202Z,-0.70
2022-12-28T05:24:13.837Z,-0.70
2022-12-28T05:26:40.882Z,-0.80
2022-12-28T05:29:08.113Z,-0.70
2022-12-28T05:31:35.300Z,-0.70
2022-12-28T05:34:02.542Z,-0.70
2022-12-28T05:36:29.618Z,-0.70
2022-12-28T05:38:57.011Z,-0.70
2022-12-28T05:41:27.406Z,-0.70
2022-12-28T05:43:55.653Z,-0.70
2022-12-28T05:46:33.959Z,-0.70
2022-12-28T05:49:01.727Z,-0.70
2022-12-28T05:51:31.120Z,-0.70
2022-12-28T05:54:06.037Z,-0.70
2022-12-28T05:56:33.925Z,-0.80
2022-12-28T05:59:04.103Z,-0.70
2022-12-28T06:01:39.962Z,-0.80
2022-12-28T06:04:27.412Z,-0.80
2022-12-28T06:06:55.088Z,-0.80
2022-12-28T06:09:22.176Z,-0.80
2022-12-28T06:11:49.481Z,-0.80
2022-12-28T06:14:16.713Z,-0.80
2022-12-28T06:16:44.186Z,-0.80
2022-12-28T06:19:14.813Z,-0.80
2022-12-28T06:21:42.610Z,-0.80
2022-12-28T06:24:10.828Z,-0.80
2022-12-28T06:26:39.512Z,-0.80
2022-12-28T06:29:06.620Z,-0.80
2022-12-28T06:31:36.174Z,-0.80
2022-12-28T06:34:05.396Z,-0.80
2022-12-28T06:36:35.195Z,-0.80
2022-12-28T06:39:04.295Z,-0.80
2022-12-28T06:41:31.517Z,-0.90
2022-12-28T06:43:59.432Z,-0.90
2022-12-28T06:46:28.678Z,-0.90
2022-12-28T06:48:56.146Z,-0.90
2022-12-28T06:51:26.556Z,-0.90
2022-12-28T06:53:54.804Z,-0.80
2022-12-28T06:56:30.955Z,-0.80
2022-12-28T06:59:03.217Z,-0.80
2022-12-28T07:01:35.630Z,-0.70
2022-12-28T07:04:04.865Z,-0.60
2022-12-28T07:06:39.164Z,-0.60
2022-12-28T07:09:09.600Z,-0.70
2022-12-28T07:11:37.335Z,-0.70
2022-12-28T07:14:04.765Z,-0.80
2022-12-28T07:18:59.923Z,-0.60
2022-12-28T07:21:30.412Z,-0.60
2022-12-28T07:23:58.362Z,-0.50
2022-12-28T07:26:33.658Z,-0.50
2022-12-28T07:29:03.924Z,-0.60
2022-12-28T07:31:39.741Z,-0.60
2022-12-28T07:34:11.100Z,-0.70
2022-12-28T07:36:38.244Z,-0.70
2022-12-28T07:39:05.452Z,-0.70
2022-12-28T07:41:36.247Z,-0.70
2022-12-28T07:44:03.773Z,-0.70
2022-12-28T07:46:33.886Z,-0.20
2022-12-28T07:49:01.394Z,-0.10
2022-12-28T07:51:31.399Z,-0.40
2022-12-28T07:53:59.452Z,-0.50
2022-12-28T07:56:28.528Z,-0.50
2022-12-28T07:59:01.194Z,-0.50
2022-12-28T08:01:31.939Z,-0.50
2022-12-28T08:04:02.199Z,-0.50
2022-12-28T08:06:30.643Z,-0.50
2022-12-28T08:09:00.742Z,-0.50
2022-12-28T08:11:30.534Z,-0.50
2022-12-28T08:13:59.057Z,-0.50
2022-12-28T08:16:28.657Z,-0.50
2022-12-28T08:18:55.820Z,-0.60
2022-12-28T08:21:29.928Z,-0.60
2022-12-28T08:23:57.786Z,-0.60
2022-12-28T08:26:36.425Z,-0.50
2022-12-28T08:29:06.332Z,-0.50
2022-12-28T08:31:35.982Z,-0.20
2022-12-28T08:34:05.221Z,-0.30
2022-12-28T08:36:32.823Z,-0.20
2022-12-28T08:39:01.341Z,-0.30
2022-12-28T08:41:29.747Z,-0.20
2022-12-28T08:43:57.537Z,-0.20
2022-12-28T08:46:25.784Z,-0.20
2022-12-28T08:48:54.781Z,-0.20
2022-12-28T08:51:29.722Z,-0.30
2022-12-28T08:53:57.062Z,-0.30
2022-12-28T08:56:27.907Z,-0.20
2022-12-28T08:58:55.844Z,-0.10
2022-12-28T09:01:25.323Z,0.10
2022-12-28T09:03:55.297Z,0.10
2022-12-28T09:06:25.866Z,0.00
2022-12-28T09:09:05.364Z,-0.40
2022-12-28T09:11:37.494Z,-0.10
2022-12-28T09:14:06.605Z,0.00
2022-12-28T09:19:04.253Z,0.20
2022-12-28T09:21:34.838Z,-0.30
2022-12-28T09:24:02.812Z,-0.10
2022-12-28T09:26:32.078Z,-0.20
2022-12-28T09:29:01.989Z,-0.10
2022-12-28T09:31:31.163Z,0.00
2022-12-28T09:39:19.987Z,0.10
2022-12-28T09:41:56.330Z,0.00
2022-12-28T09:44:45.287Z,-0.20
2022-12-28T09:47:35.274Z,0.00
2022-12-28T09:52:59.735Z,0.00
2022-12-28T09:55:27.998Z,0.00
2022-12-28T09:57:58.918Z,0.00
2022-12-28T10:00:47.926Z,0.00
2022-12-28T10:03:27.051Z,0.10
2022-12-28T10:05:57.577Z,0.10
2022-12-28T10:08:26.666Z,-0.10
2022-12-28T10:13:54.725Z,0.30
2022-12-28T10:16:23.629Z,0.60
2022-12-28T10:21:22.334Z,0.40
2022-12-28T10:24:29.591Z,0.30
2022-12-28T10:26:44.521Z,0.30
2022-12-28T10:29:20.260Z,0.20
2022-12-28T10:32:12.746Z,0.10
2022-12-28T10:34:56.665Z,0.10
2022-12-28T10:37:26.672Z,-0.20
2022-12-28T10:40:03.834Z,-0.40
2022-12-28T10:42:42.762Z,-0.40
2022-12-28T10:45:22.699Z,-0.40
2022-12-28T10:47:55.520Z,-0.30
2022-12-28T10:50:49.169Z,-0.50
2022-12-28T10:53:28.283Z,-0.40
2022-12-28T10:56:12.007Z,-0.20
2022-12-28T10:58:47.222Z,-0.10
2022-12-28T11:03:45.912Z,0.30
2022-12-28T11:08:42.123Z,-0.10
2022-12-28T11:11:22.566Z,0.00
2022-12-28T11:14:00.619Z,0.30
2022-12-28T11:16:30.099Z,0.30
2022-12-28T11:18:58.449Z,0.20
2022-12-28T11:26:22.149Z,0.60
2022-12-28T11:28:52.025Z,0.60
2022-12-28T11:31:33.764Z,0.60
2022-12-28T11:34:04.750Z,0.60
2022-12-28T11:36:38.659Z,0.50
2022-12-28T11:39:27.518Z,0.50
2022-12-28T11:42:38.319Z,0.50
2022-12-28T11:44:52.990Z,2.90
2022-12-28T11:47:35.750Z,0.60
2022-12-28T11:50:36.747Z,0.60
2022-12-28T11:53:27.837Z,0.70
2022-12-28T11:56:08.451Z,0.40
2022-12-28T11:58:42.325Z,0.40
2022-12-28T12:01:11.534Z,0.50
2022-12-28T12:03:57.245Z,0.40
2022-12-28T12:06:42.782Z,0.30
2022-12-28T12:09:21.830Z,0.40
2022-12-28T12:11:50.724Z,0.30
2022-12-28T12:14:41.130Z,0.30
2022-12-28T12:17:22.794Z,0.20
2022-12-28T12:19:55.826Z,0.20
2022-12-28T12:22:28.680Z,0.20
2022-12-28T12:25:03.218Z,0.10
2022-12-28T12:30:19.838Z,0.10
2022-12-28T12:32:58.612Z,0.10
2022-12-28T12:35:31.273Z,0.10
2022-12-28T12:38:10.306Z,0.00
2022-12-28T12:40:46.359Z,0.10
2022-12-28T12:43:41.440Z,0.10
2022-12-28T12:46:37.587Z,0.00
2022-12-28T12:49:51.894Z,0.10
2022-12-28T12:52:30.679Z,0.10
2022-12-28T12:55:11.784Z,0.10
2022-12-28T12:57:51.169Z,0.00
2022-12-28T13:00:20.775Z,0.00
2022-12-28T13:02:53.557Z,0.10
2022-12-28T13:05:22.418Z,0.10
2022-12-28T13:07:50.556Z,0.10
2022-12-28T13:10:24.812Z,0.10
2022-12-28T13:12:59.899Z,-0.10
2022-12-28T13:15:27.909Z,-0.10
2022-12-28T13:21:10.523Z,0.00
2022-12-28T13:23:45.536Z,0.00
2022-12-28T13:26:14.807Z,-0.10
2022-12-28T13:29:03.874Z,0.00
2022-12-28T13:31:36.203Z,-0.10
2022-12-28T13:34:23.724Z,1.10
2022-12-28T13:36:59.439Z,-0.40
2022-12-28T13:39:29.055Z,-0.20
2022-12-28T13:42:03.385Z,0.10
2022-12-28T13:44:39.631Z,-0.20
2022-12-28T13:47:27.712Z,-0.20
2022-12-28T13:49:57.616Z,0.00
2022-12-28T13:52:31.454Z,-0.40
2022-12-28T13:55:03.779Z,-0.30
2022-12-28T13:57:46.346Z,-0.30
2022-12-28T14:00:20.653Z,-0.30
2022-12-28T14:02:50.514Z,-0.30
2022-12-28T14:05:24.289Z,-0.30
2022-12-28T14:07:54.430Z,-0.30
2022-12-28T14:10:22.540Z,-0.30
2022-12-28T14:12:50.623Z,-0.30
2022-12-28T14:15:18.513Z,-0.30
2022-12-28T14:17:47.582Z,-0.20
2022-12-28T14:20:14.758Z,-0.30
2022-12-28T14:22:42.028Z,-0.20
2022-12-28T14:25:20.369Z,-0.30
2022-12-28T14:28:06.187Z,-0.20
2022-12-28T14:30:42.223Z,-0.30
2022-12-28T14:33:24.741Z,-0.30
2022-12-28T14:35:59.292Z,-0.30
2022-12-28T14:38:32.805Z,-0.40
2022-12-28T14:41:02.282Z,-0.30
2022-12-28T14:43:34.766Z,-0.30
2022-12-28T14:46:38.317Z,-0.40
2022-12-28T14:49:23.958Z,-0.40
2022-12-28T14:51:51.184Z,-0.40
2022-12-28T14:54:26.218Z,-0.50
2022-12-28T14:57:02.622Z,-0.40
2022-12-28T14:59:37.851Z,-0.40
2022-12-28T15:02:27.217Z,-0.40
2022-12-28T15:05:00.326Z,-0.40
2022-12-28T15:07:28.102Z,-0.40
2022-12-28T15:09:55.147Z,-0.30
2022-12-28T15:12:23.123Z,-0.20
2022-12-28T15:14:50.377Z,-0.30
2022-12-28T15:17:18.279Z,-0.30
2022-12-28T15:19:45.859Z,-0.20
2022-12-28T15:22:13.858Z,-0.30
2022-12-28T15:24:45.347Z,-0.10
2022-12-28T15:27:12.941Z,-0.20
2022-12-28T15:30:04.188Z,-0.20
2022-12-28T15:32:27.874Z,-0.20
2022-12-28T15:34:55.016Z,-0.20
2022-12-28T15:37:22.109Z,-0.30
2022-12-28T15:39:49.230Z,-0.30
2022-12-28T15:42:16.362Z,-0.30
2022-12-28T15:44:43.651Z,-0.20
2022-12-28T15:47:10.736Z,-0.30
2022-12-28T15:49:37.919Z,-0.20
2022-12-28T15:52:05.091Z,-0.10
2022-12-28T15:54:32.589Z,-0.10
2022-12-28T15:56:59.706Z,-0.10
2022-12-28T15:59:27.699Z,-0.10
2022-12-28T16:01:54.975Z,0.00
2022-12-28T16:04:22.423Z,0.00
2022-12-28T16:06:49.546Z,0.00
2022-12-28T16:09:16.669Z,0.10
2022-12-28T16:11:43.875Z,0.10
2022-12-28T16:14:16.377Z,0.00
2022-12-28T16:16:44.924Z,0.00
2022-12-28T16:19:14.215Z,0.00
2022-12-28T16:21:41.959Z,0.10
2022-12-28T16:24:10.092Z,0.30
2022-12-28T16:26:37.187Z,0.20
2022-12-28T16:29:04.402Z,0.10
2022-12-28T16:31:34.360Z,0.20
2022-12-28T16:34:04.486Z,0.10
2022-12-28T16:36:32.123Z,0.10
2022-12-28T16:38:59.494Z,0.00
2022-12-28T16:41:31.395Z,-0.20
2022-12-28T16:44:06.888Z,0.00
2022-12-28T16:46:34.002Z,-0.10
2022-12-28T16:49:02.268Z,0.00
2022-12-28T16:51:32.330Z,0.00
2022-12-28T16:53:59.593Z,0.10
2022-12-28T16:56:26.640Z,0.00
2022-12-28T16:58:59.802Z,0.00
2022-12-28T17:01:27.816Z,0.00
2022-12-28T17:04:01.858Z,0.00
2022-12-28T17:06:31.202Z,0.00
2022-12-28T17:09:02.038Z,-0.10
2022-12-28T17:11:29.370Z,-0.10
2022-12-28T17:14:01.947Z,0.00
2022-12-28T17:16:29.441Z,-0.10
2022-12-28T17:18:56.604Z,-0.10
2022-12-28T17:21:23.731Z,-0.10
2022-12-28T17:23:50.870Z,-0.10
2022-12-28T17:26:18.204Z,0.00
2022-12-28T17:28:45.281Z,0.00
2022-12-28T17:31:16.367Z,-0.10
2022-12-28T17:33:46.954Z,-0.10
2022-12-28T17:36:14.256Z,0.00
2022-12-28T17:38:42.070Z,0.00
2022-12-28T17:41:20.973Z,0.00
2022-12-28T17:43:49.535Z,0.00
2022-12-28T17:46:17.579Z,-0.10
2022-12-28T17:48:45.110Z,-0.10
2022-12-28T17:51:12.488Z,0.00
2022-12-28T17:53:40.155Z,0.00
2022-12-28T17:56:12.749Z,0.00
2022-12-28T17:58:41.674Z,0.30
2022-12-28T18:01:09.475Z,0.30
2022-12-28T18:03:37.004Z,0.10
2022-12-28T18:06:05.423Z,0.20
2022-12-28T18:08:32.793Z,0.10
2022-12-28T18:10:59.898Z,0.30
2022-12-28T18:13:47.611Z,0.20
2022-12-28T18:16:18.041Z,0.10
2022-12-28T18:18:45.814Z,0.20
2022-12-28T18:21:21.076Z,0.10
2022-12-28T18:23:50.904Z,0.10
2022-12-28T18:26:20.868Z,0.30
2022-12-28T18:28:48.169Z,0.20
2022-12-28T18:31:15.407Z,0.10
2022-12-28T18:33:43.261Z,0.30
2022-12-28T18:36:17.089Z,0.20
2022-12-28T18:38:45.090Z,0.30
2022-12-28T18:41:13.808Z,0.20
2022-12-28T18:43:41.483Z,0.20
2022-12-28T18:46:09.257Z,0.30
2022-12-28T18:48:38.969Z,0.30
2022-12-28T18:51:12.852Z,0.30
2022-12-28T18:53:40.183Z,0.40
2022-12-28T18:56:07.409Z,0.20
2022-12-28T18:58:37.073Z,0.20
2022-12-28T19:01:32.406Z,0.20
2022-12-28T19:04:01.069Z,0.20
2022-12-28T19:06:29.468Z,0.30
2022-12-28T19:09:02.555Z,0.30
2022-12-28T19:11:29.765Z,0.30
2022-12-28T19:13:57.230Z,0.30
2022-12-28T19:16:31.064Z,0.30
2022-12-28T19:18:59.335Z,0.40
2022-12-28T19:21:28.141Z,0.30
2022-12-28T19:23:57.781Z,0.40
2022-12-28T19:26:25.615Z,0.30
2022-12-28T19:28:53.270Z,0.30
2022-12-28T19:31:20.896Z,0.30
2022-12-28T19:33:48.222Z,0.30
2022-12-28T19:36:15.396Z,0.40
2022-12-28T19:38:42.825Z,0.50
2022-12-28T19:41:15.773Z,0.40
2022-12-28T19:43:43.853Z,0.50
2022-12-28T19:46:12.975Z,0.50
2022-12-28T19:48:40.308Z,0.40
2022-12-28T19:51:09.651Z,0.50
2022-12-28T19:53:40.145Z,0.60
2022-12-28T19:56:17.232Z,0.60
2022-12-28T19:58:45.683Z,0.60
2022-12-28T20:01:19.864Z,0.60
2022-12-28T20:03:47.569Z,0.40
2022-12-28T20:06:21.575Z,0.40
2022-12-28T20:08:54.134Z,0.40
2022-12-28T20:11:22.299Z,0.50
2022-12-28T20:13:59.760Z,0.50
2022-12-28T20:16:29.099Z,0.40
2022-12-28T20:18:57.024Z,0.50
2022-12-28T20:21:25.969Z,0.50
2022-12-28T20:23:54.559Z,0.40
2022-12-28T20:26:24.771Z,0.50
2022-12-28T20:28:52.539Z,0.40
2022-12-28T20:31:19.958Z,0.50
2022-12-28T20:33:47.387Z,0.50
2022-12-28T20:36:17.326Z,0.60
2022-12-28T20:38:44.515Z,0.60
2022-12-28T20:41:45.883Z,0.60
2022-12-28T20:44:16.392Z,0.70
2022-12-28T20:46:44.757Z,0.70
2022-12-28T20:49:13.008Z,0.80
2022-12-28T20:51:42.551Z,0.80
2022-12-28T20:54:10.517Z,0.80
2022-12-28T20:56:38.730Z,0.80
2022-12-28T20:59:06.300Z,0.70
2022-12-28T21:01:36.090Z,0.80
2022-12-28T21:04:03.802Z,0.80
2022-12-28T21:06:30.963Z,0.80
2022-12-28T21:08:58.538Z,0.70
2022-12-28T21:11:26.398Z,0.80
2022-12-28T21:13:53.506Z,1.00
2022-12-28T21:16:20.592Z,0.90
2022-12-28T21:18:49.393Z,0.90
2022-12-28T21:21:18.900Z,0.90
2022-12-28T21:23:46.128Z,0.90
2022-12-28T21:26:15.889Z,0.90
2022-12-28T21:28:43.624Z,1.00
2022-12-28T21:31:11.603Z,0.90
2022-12-28T21:33:39.632Z,1.00
2022-12-28T21:36:12.956Z,1.00
2022-12-28T21:38:41.018Z,0.90
2022-12-28T21:41:37.407Z,0.90
2022-12-28T21:44:08.973Z,0.90
2022-12-28T21:46:36.454Z,0.90
2022-12-28T21:49:03.995Z,0.80
2022-12-28T21:51:31.801Z,0.90
2022-12-28T21:54:00.573Z,0.90
2022-12-28T21:56:28.639Z,0.90
2022-12-28T21:58:57.277Z,0.90
2022-12-28T22:01:43.128Z,1.00
2022-12-28T22:04:31.951Z,0.90
2022-12-28T22:06:59.544Z,0.90
2022-12-28T22:09:45.956Z,0.80
2022-12-28T22:12:32.648Z,1.00
2022-12-28T22:15:19.206Z,0.80
2022-12-28T22:17:46.543Z,1.00
2022-12-28T22:20:15.709Z,1.00
2022-12-28T22:22:43.888Z,0.90
2022-12-28T22:25:12.278Z,1.00
2022-12-28T22:27:40.733Z,1.00
2022-12-28T22:30:08.502Z,0.90
2022-12-28T22:32:35.600Z,0.90
2022-12-28T22:35:02.791Z,0.90
2022-12-28T22:37:33.738Z,1.00
2022-12-28T22:40:01.432Z,2.00
2022-12-28T22:42:30.548Z,1.10
2022-12-28T22:44:57.669Z,1.00
2022-12-28T22:47:28.170Z,0.90
2022-12-28T22:49:55.527Z,0.90
2022-12-28T22:52:22.615Z,1.00
2022-12-28T22:54:50.054Z,0.90
2022-12-28T22:57:17.222Z,1.00
2022-12-28T22:59:44.691Z,0.90
2022-12-28T23:02:11.947Z,0.90
2022-12-28T23:04:39.253Z,0.90
2022-12-28T23:07:06.393Z,0.90
2022-12-28T23:09:33.834Z,1.00
2022-12-28T23:12:01.183Z,1.00
2022-12-28T23:14:47.194Z,1.00
2022-12-28T23:17:16.029Z,1.00
2022-12-28T23:20:03.014Z,1.10
2022-12-28T23:22:54.307Z,1.10
2022-12-28T23:25:42.819Z,0.80
2022-12-28T23:28:13.385Z,0.80
2022-12-28T23:30:44.330Z,0.80
2022-12-28T23:33:11.582Z,0.90
2022-12-28T23:35:38.862Z,0.90
2022-12-28T23:38:06.285Z,0.90
2022-12-28T23:40:33.429Z,0.00
2022-12-28T23:43:00.488Z,0.90
2022-12-28T23:45:27.626Z,0.80
2022-12-28T23:47:55.443Z,1.00
2022-12-28T23:50:23.056Z,0.80
2022-12-28T23:52:50.242Z,0.80
2022-12-28T23:55:17.648Z,0.90
2022-12-28T23:57:44.811Z,0.90
